Time;durP1;ratioP1;P1;durP2;ratioP2;P2;SDS_P1;SDS_P2;PMS_P1;PMS_P2;Temp;Humidity;BMP_temperature;BMP_pressure;BME280_temperature;BME280_humidity;BME280_pressure;Samples;Min_cycle;Max_cycle;Signal;HPM_P1;HPM_P2
2021/11/16 00:01:09;;;;;;;4.55;3.97;;;3.80;68.30;;;;;;4956482;28;20144;-57
2021/11/16 00:03:35;;;;;;;5.55;4.53;;;3.80;68.40;;;;;;4942372;29;20412;-58
2021/11/16 00:06:01;;;;;;;7.00;4.72;;;3.80;68.40;;;;;;4952400;29;20024;-58
2021/11/16 00:08:27;;;;;;;5.57;4.50;;;3.80;68.50;;;;;;4937380;29;20083;-56
2021/11/16 00:10:52;;;;;;;5.15;4.32;;;3.70;68.50;;;;;;4942367;28;20051;-59
2021/11/16 00:13:18;;;;;;;6.65;5.00;;;3.70;68.70;;;;;;4946647;28;20066;-59
2021/11/16 00:15:45;;;;;;;6.18;4.90;;;3.80;68.70;;;;;;4944108;28;20030;-58
2021/11/16 00:18:12;;;;;;;4.57;4.05;;;3.80;68.80;;;;;;4937348;29;20111;-57
2021/11/16 00:20:44;;;;;;;6.07;4.55;;;3.70;68.50;;;;;;4945314;29;20023;-57
2021/11/16 00:23:22;;;;;;;5.95;4.38;;;3.70;68.60;;;;;;4940634;28;20063;-58
2021/11/16 00:25:57;;;;;;;5.82;4.90;;;3.80;68.80;;;;;;4940324;29;20024;-59
2021/11/16 00:28:23;;;;;;;5.30;4.53;;;3.80;68.90;;;;;;4939002;29;20420;-57
2021/11/16 00:30:50;;;;;;;6.50;4.50;;;3.80;68.80;;;;;;4957516;28;20487;-56
2021/11/16 00:33:17;;;;;;;5.82;4.72;;;3.80;68.80;;;;;;4956478;28;20046;-58
2021/11/16 00:35:43;;;;;;;5.50;4.22;;;3.80;69.00;;;;;;4951455;28;20035;-56
2021/11/16 00:38:12;;;;;;;6.47;4.53;;;3.80;68.90;;;;;;4941887;28;20035;-59
2021/11/16 00:40:39;;;;;;;6.03;4.90;;;3.80;68.90;;;;;;4952506;28;20047;-56
2021/11/16 00:43:09;;;;;;;7.28;4.55;;;3.80;69.30;;;;;;4950153;29;20079;-55
2021/11/16 00:45:36;;;;;;;5.10;4.60;;;3.80;69.20;;;;;;4947693;28;20041;-57
2021/11/16 00:48:03;;;;;;;6.53;5.03;;;3.70;69.30;;;;;;4939118;28;20074;-56
2021/11/16 00:50:29;;;;;;;5.90;5.15;;;3.70;69.50;;;;;;4947797;29;20365;-54
2021/11/16 00:52:55;;;;;;;5.32;4.55;;;3.70;69.60;;;;;;4938816;28;20035;-57
2021/11/16 00:55:20;;;;;;;5.90;4.85;;;3.70;69.70;;;;;;4936760;29;20035;-57
2021/11/16 00:57:46;;;;;;;5.68;5.03;;;3.80;69.70;;;;;;4936526;29;20059;-57
2021/11/16 01:00:14;;;;;;;7.20;5.38;;;3.80;69.60;;;;;;4939791;29;20034;-57
2021/11/16 01:02:40;;;;;;;5.60;4.85;;;3.80;69.60;;;;;;4949903;28;20041;-58
2021/11/16 01:05:06;;;;;;;5.55;4.53;;;3.90;69.70;;;;;;4948285;28;20027;-57
2021/11/16 01:07:32;;;;;;;5.32;4.82;;;3.90;69.80;;;;;;4948008;28;20114;-57
2021/11/16 01:09:59;;;;;;;5.50;4.40;;;4.00;69.90;;;;;;4943823;28;20078;-59
2021/11/16 01:12:25;;;;;;;6.07;4.93;;;4.00;69.80;;;;;;4951880;29;20023;-59
2021/11/16 01:14:53;;;;;;;6.63;4.55;;;4.00;69.80;;;;;;4955631;28;20032;-59
2021/11/16 01:17:19;;;;;;;5.65;4.90;;;4.00;69.70;;;;;;4951128;28;20122;-59
2021/11/16 01:19:46;;;;;;;7.10;4.80;;;4.00;69.60;;;;;;4940022;28;20114;-56
2021/11/16 01:22:13;;;;;;;6.18;5.07;;;4.00;69.80;;;;;;4949665;28;20110;-59
2021/11/16 01:24:40;;;;;;;6.68;5.25;;;4.10;69.80;;;;;;4934019;29;20024;-58
2021/11/16 01:27:07;;;;;;;7.07;5.72;;;4.10;69.60;;;;;;4932979;29;20039;-58
2021/11/16 01:29:36;;;;;;;6.38;5.50;;;4.10;69.40;;;;;;4934384;29;20027;-58
2021/11/16 01:32:02;;;;;;;7.07;5.70;;;4.10;69.30;;;;;;4944822;28;20117;-58
2021/11/16 01:34:29;;;;;;;6.57;5.18;;;4.20;69.20;;;;;;4937469;28;20106;-57
2021/11/16 01:36:55;;;;;;;7.68;5.60;;;4.30;68.90;;;;;;4954238;28;20447;-57
2021/11/16 01:39:22;;;;;;;7.15;5.43;;;4.30;68.60;;;;;;4947287;28;20043;-58
2021/11/16 01:41:48;;;;;;;6.30;5.57;;;4.40;68.30;;;;;;4945108;29;20039;-59
2021/11/16 01:44:14;;;;;;;6.78;4.80;;;4.40;67.90;;;;;;4955236;28;20034;-59
2021/11/16 01:46:40;;;;;;;8.00;5.78;;;4.50;67.60;;;;;;4948530;28;20450;-58
2021/11/16 01:49:08;;;;;;;9.65;7.18;;;4.50;67.20;;;;;;4947354;28;20118;-58
2021/11/16 01:51:34;;;;;;;9.73;8.05;;;4.50;66.90;;;;;;4954006;28;20050;-57
2021/11/16 01:54:02;;;;;;;11.52;10.00;;;4.40;66.70;;;;;;4948938;28;20023;-56
2021/11/16 01:56:46;;;;;;;11.85;9.93;;;4.50;66.50;;;;;;4937177;28;20399;-58
2021/11/16 01:59:18;;;;;;;13.30;10.20;;;4.40;66.20;;;;;;4939830;29;20019;-58
2021/11/16 02:01:44;;;;;;;12.43;10.95;;;4.30;66.10;;;;;;4949352;28;20054;-56
2021/11/16 02:04:10;;;;;;;14.02;12.50;;;4.30;66.20;;;;;;4943552;28;20082;-57
2021/11/16 02:06:38;;;;;;;13.32;11.98;;;4.30;66.10;;;;;;4954317;28;20023;-57
2021/11/16 02:09:07;;;;;;;14.82;13.23;;;4.30;66.10;;;;;;4943187;28;20058;-58
2021/11/16 02:11:33;;;;;;;15.05;13.23;;;4.30;66.20;;;;;;4955499;28;20399;-57
2021/11/16 02:14:00;;;;;;;17.83;14.00;;;4.30;66.20;;;;;;4938097;28;20023;-58
2021/11/16 02:16:27;;;;;;;18.88;13.50;;;4.20;66.00;;;;;;4947754;29;20027;-58
2021/11/16 02:18:52;;;;;;;15.30;12.10;;;4.20;66.00;;;;;;4954558;28;20034;-55
2021/11/16 02:21:19;;;;;;;16.30;12.43;;;4.20;66.00;;;;;;4954621;28;20024;-58
2021/11/16 02:23:45;;;;;;;16.90;13.60;;;4.20;66.20;;;;;;4954477;28;20030;-57
2021/11/16 02:26:12;;;;;;;18.08;12.80;;;4.20;66.10;;;;;;4954945;28;20030;-59
2021/11/16 02:28:43;;;;;;;15.05;12.88;;;4.20;66.00;;;;;;4955168;28;20118;-56
2021/11/16 02:31:09;;;;;;;15.40;12.65;;;4.20;66.10;;;;;;4946913;29;20132;-58
2021/11/16 02:33:35;;;;;;;14.55;11.85;;;4.20;66.00;;;;;;4951564;28;20036;-59
2021/11/16 02:36:01;;;;;;;16.75;13.40;;;4.20;66.70;;;;;;4938094;29;20035;-59
2021/11/16 02:38:26;;;;;;;15.25;12.32;;;4.30;66.00;;;;;;4939281;28;20091;-58
2021/11/16 02:40:53;;;;;;;16.58;11.75;;;4.30;66.00;;;;;;4943158;29;20079;-59
2021/11/16 02:43:21;;;;;;;17.77;12.82;;;4.30;65.90;;;;;;4958049;28;20038;-58
2021/11/16 02:45:47;;;;;;;18.15;13.93;;;4.30;65.90;;;;;;4956866;28;20035;-59
2021/11/16 02:48:13;;;;;;;19.67;14.32;;;4.30;65.80;;;;;;4949332;28;20422;-57
2021/11/16 02:50:47;;;;;;;18.77;15.35;;;4.30;65.80;;;;;;4948938;28;20043;-58
2021/11/16 02:53:14;;;;;;;20.40;15.13;;;4.30;65.70;;;;;;4946739;29;20054;-57
2021/11/16 02:55:40;;;;;;;16.90;12.90;;;4.30;65.70;;;;;;4941607;28;20119;-56
2021/11/16 02:58:07;;;;;;;15.98;13.18;;;4.30;65.50;;;;;;4938872;29;20341;-59
2021/11/16 03:00:34;;;;;;;16.75;12.00;;;4.20;65.40;;;;;;4957801;28;20364;-58
2021/11/16 03:03:00;;;;;;;17.08;12.40;;;4.20;65.40;;;;;;4958588;28;20019;-58
2021/11/16 03:05:34;;;;;;;15.52;10.98;;;4.10;65.30;;;;;;4950373;29;20019;-58
2021/11/16 03:08:09;;;;;;;12.60;9.52;;;4.10;65.30;;;;;;4943051;28;20527;-56
2021/11/16 03:10:35;;;;;;;13.10;9.10;;;4.10;65.40;;;;;;4947084;29;20031;-58
2021/11/16 03:13:01;;;;;;;10.10;8.15;;;4.10;65.40;;;;;;4957661;28;20041;-57
2021/11/16 03:15:26;;;;;;;9.15;7.55;;;4.10;65.30;;;;;;4957985;28;20114;-59
2021/11/16 03:17:53;;;;;;;8.68;6.78;;;4.00;65.10;;;;;;4956623;28;20038;-55
2021/11/16 03:20:19;;;;;;;8.02;6.03;;;4.00;65.00;;;;;;4951992;28;20106;-56
2021/11/16 03:22:57;;;;;;;7.10;5.43;;;4.00;64.90;;;;;;4951630;29;20035;-58
2021/11/16 03:25:28;;;;;;;6.93;5.38;;;4.00;64.70;;;;;;4948853;28;20388;-55
2021/11/16 03:28:01;;;;;;;6.25;5.63;;;4.00;64.70;;;;;;4938683;29;20107;-59
2021/11/16 03:30:29;;;;;;;6.93;5.63;;;4.00;64.70;;;;;;4944095;29;20046;-58
2021/11/16 03:32:55;;;;;;;6.50;4.65;;;4.00;65.30;;;;;;4961443;28;20060;-58
2021/11/16 03:35:21;;;;;;;6.32;4.60;;;4.00;64.50;;;;;;4952131;28;20035;-59
2021/11/16 03:37:50;;;;;;;7.15;5.10;;;4.00;64.40;;;;;;4960448;28;20049;-58
2021/11/16 03:40:17;;;;;;;7.13;4.80;;;4.00;64.20;;;;;;4946744;28;20047;-59
2021/11/16 03:42:47;;;;;;;6.60;4.93;;;4.00;64.00;;;;;;4942128;28;20464;-56
2021/11/16 03:45:16;;;;;;;5.70;4.70;;;4.00;64.00;;;;;;4937826;29;20020;-55
2021/11/16 03:47:42;;;;;;;5.88;4.95;;;4.00;64.00;;;;;;4938814;28;20049;-57
2021/11/16 03:50:11;;;;;;;6.70;5.40;;;4.00;63.90;;;;;;4939724;28;20086;-58
2021/11/16 03:52:40;;;;;;;8.00;5.05;;;4.00;63.60;;;;;;4938312;28;20024;-59
2021/11/16 03:55:07;;;;;;;8.65;5.43;;;4.00;63.50;;;;;;4937902;29;20115;-59
2021/11/16 03:57:32;;;;;;;8.13;5.88;;;3.90;63.20;;;;;;4941547;28;20489;-58
2021/11/16 03:59:58;;;;;;;7.43;5.80;;;3.90;63.20;;;;;;4950890;28;20051;-59
2021/11/16 04:02:24;;;;;;;7.90;5.72;;;3.90;62.80;;;;;;4953769;28;20026;-58
2021/11/16 04:04:54;;;;;;;6.70;5.20;;;3.80;62.70;;;;;;4959411;28;20090;-59
2021/11/16 04:07:21;;;;;;;7.35;5.70;;;3.70;62.60;;;;;;4937845;29;20031;-58
2021/11/16 04:09:46;;;;;;;7.68;5.53;;;3.70;62.60;;;;;;4939489;28;20027;-55
2021/11/16 04:12:13;;;;;;;8.05;6.32;;;3.60;62.70;;;;;;4951945;28;20038;-57
2021/11/16 04:14:39;;;;;;;9.32;6.93;;;3.60;62.60;;;;;;4955559;29;20031;-55
2021/11/16 04:17:05;;;;;;;10.63;7.72;;;3.60;62.60;;;;;;4955167;28;20031;-58
2021/11/16 04:19:30;;;;;;;8.88;7.07;;;3.60;62.60;;;;;;4956667;28;20439;-57
2021/11/16 04:21:57;;;;;;;8.48;7.57;;;3.50;62.60;;;;;;4956411;28;20387;-58
2021/11/16 04:24:22;;;;;;;10.93;9.02;;;3.50;62.60;;;;;;4956262;28;20019;-55
2021/11/16 04:26:48;;;;;;;13.07;8.65;;;3.50;62.70;;;;;;4956538;28;20042;-54
2021/11/16 04:29:14;;;;;;;12.35;10.32;;;3.50;62.60;;;;;;4954331;28;20030;-57
2021/11/16 04:31:40;;;;;;;12.18;10.45;;;3.50;62.50;;;;;;4950290;28;20023;-59
2021/11/16 04:34:07;;;;;;;13.25;9.98;;;3.50;62.50;;;;;;4946390;28;20114;-58
2021/11/16 04:36:34;;;;;;;11.95;10.20;;;3.50;62.30;;;;;;4936852;29;20058;-59
2021/11/16 04:39:01;;;;;;;12.88;10.50;;;3.40;62.20;;;;;;4942951;29;20484;-58
2021/11/16 04:41:27;;;;;;;13.68;11.02;;;3.40;62.20;;;;;;4942712;29;20042;-57
2021/11/16 04:43:55;;;;;;;11.35;10.00;;;3.30;62.30;;;;;;4940309;28;20028;-59
2021/11/16 04:46:21;;;;;;;11.63;9.85;;;3.20;62.30;;;;;;4941131;28;20180;-55
2021/11/16 04:48:56;;;;;;;12.18;9.80;;;3.20;62.40;;;;;;4936850;29;20039;-56
2021/11/16 04:52:33;;;;;;;12.30;10.25;;;3.10;62.40;;;;;;4936720;29;20032;-56
2021/11/16 05:02:34;;;;;;;13.13;9.90;;;3.00;62.80;;;;;;4949966;29;20119;-57
2021/11/16 05:02:40;;;;;;;12.32;9.77;;;3.00;62.90;;;;;;4954014;28;20032;-58
2021/11/16 05:05:16;;;;;;;14.82;11.48;;;3.00;63.00;;;;;;4948401;28;20028;-58
2021/11/16 05:07:56;;;;;;;15.85;11.68;;;3.10;63.10;;;;;;4936393;29;20035;-57
2021/11/16 05:10:23;;;;;;;17.10;13.60;;;3.10;63.10;;;;;;4943510;29;20035;-57
2021/11/16 05:12:49;;;;;;;16.63;14.20;;;3.10;63.20;;;;;;4945151;28;20020;-58
2021/11/16 05:15:17;;;;;;;19.08;16.20;;;3.00;63.10;;;;;;4936305;29;20180;-58
2021/11/16 05:17:46;;;;;;;19.25;17.15;;;3.10;63.10;;;;;;4937772;28;20075;-56
2021/11/16 05:20:12;;;;;;;19.45;17.40;;;3.10;63.10;;;;;;4942135;28;20058;-56
2021/11/16 05:22:39;;;;;;;18.13;16.23;;;3.10;63.20;;;;;;4934380;29;20059;-57
2021/11/16 05:25:05;;;;;;;20.17;18.08;;;3.10;63.10;;;;;;4938060;29;20071;-56
2021/11/16 05:27:31;;;;;;;21.52;17.20;;;3.10;63.20;;;;;;4953998;28;20023;-56
2021/11/16 05:29:57;;;;;;;18.45;16.50;;;3.20;63.30;;;;;;4951975;28;20050;-58
2021/11/16 05:32:22;;;;;;;13.50;12.10;;;3.30;63.40;;;;;;4955316;28;20031;-58
2021/11/16 05:34:48;;;;;;;15.00;11.63;;;3.30;63.40;;;;;;4960725;28;20074;-57
2021/11/16 05:37:14;;;;;;;12.13;10.23;;;3.40;63.40;;;;;;4938191;29;20031;-55
2021/11/16 05:39:40;;;;;;;14.65;10.35;;;3.50;63.10;;;;;;4949994;29;20052;-56
2021/11/16 05:42:06;;;;;;;12.95;9.95;;;3.50;63.00;;;;;;4946626;29;20016;-59
2021/11/16 05:44:32;;;;;;;11.25;8.38;;;3.70;63.00;;;;;;4941464;29;20035;-59
2021/11/16 05:47:02;;;;;;;12.23;8.32;;;3.70;62.70;;;;;;4954960;28;20028;-59
2021/11/16 05:49:32;;;;;;;10.13;8.13;;;3.80;62.60;;;;;;4947736;28;20488;-58
2021/11/16 05:52:02;;;;;;;11.15;7.65;;;3.90;62.50;;;;;;4937805;28;20046;-54
2021/11/16 05:54:32;;;;;;;10.10;7.40;;;3.90;62.30;;;;;;4948045;28;20077;-59
2021/11/16 05:57:00;;;;;;;11.85;7.40;;;4.00;62.20;;;;;;4936461;28;20364;-58
2021/11/16 05:59:27;;;;;;;10.13;6.57;;;4.10;62.10;;;;;;4944143;29;20522;-58
2021/11/16 06:01:53;;;;;;;8.82;6.60;;;4.20;61.90;;;;;;4951885;28;20027;-57
2021/11/16 06:04:18;;;;;;;12.10;7.22;;;4.20;61.80;;;;;;4935876;28;20027;-58
2021/11/16 06:06:44;;;;;;;8.18;6.82;;;4.30;61.50;;;;;;4935097;29;20031;-61
2021/11/16 06:09:11;;;;;;;9.40;6.65;;;4.40;61.30;;;;;;4942043;28;20034;-60
2021/11/16 06:11:37;;;;;;;9.77;7.10;;;4.40;61.00;;;;;;4950038;28;20480;-61
2021/11/16 06:14:03;;;;;;;8.25;6.82;;;4.50;60.90;;;;;;4947365;28;20031;-60
2021/11/16 06:16:29;;;;;;;8.07;6.28;;;4.50;60.80;;;;;;4949778;28;20066;-61
2021/11/16 06:19:00;;;;;;;7.75;5.70;;;4.50;60.50;;;;;;4945909;29;20412;-61
2021/11/16 06:21:26;;;;;;;8.18;5.80;;;4.50;60.30;;;;;;4957211;28;20034;-61
2021/11/16 06:23:53;;;;;;;6.80;5.55;;;4.40;60.30;;;;;;4956878;28;20114;-61
2021/11/16 06:26:20;;;;;;;6.95;5.50;;;4.40;60.10;;;;;;4950592;28;20019;-61
2021/11/16 06:28:46;;;;;;;7.38;5.43;;;4.40;60.20;;;;;;4957608;28;20031;-61
2021/11/16 06:31:12;;;;;;;8.80;5.55;;;4.40;60.10;;;;;;4952179;28;20034;-61
2021/11/16 06:33:38;;;;;;;8.77;5.70;;;4.40;60.10;;;;;;4948601;28;20070;-61
2021/11/16 06:36:04;;;;;;;7.10;6.15;;;4.40;59.90;;;;;;4950758;28;20078;-59
2021/11/16 06:38:30;;;;;;;8.23;5.97;;;4.30;59.90;;;;;;4948680;28;20019;-58
2021/11/16 06:40:56;;;;;;;8.20;6.13;;;4.30;60.10;;;;;;4945878;28;20565;-59
2021/11/16 06:43:27;;;;;;;8.43;6.68;;;4.20;60.00;;;;;;4947155;28;20024;-57
2021/11/16 06:45:55;;;;;;;7.15;5.68;;;4.20;60.00;;;;;;4938716;28;20123;-58
2021/11/16 06:48:22;;;;;;;11.10;6.47;;;4.20;60.10;;;;;;4942697;28;20038;-59
2021/11/16 06:50:48;;;;;;;8.60;6.43;;;4.20;60.10;;;;;;4941824;28;20046;-58
2021/11/16 06:53:22;;;;;;;8.02;5.93;;;4.20;60.00;;;;;;4944617;28;20034;-59
2021/11/16 06:55:48;;;;;;;10.60;6.80;;;4.20;60.00;;;;;;4948527;28;20034;-60
2021/11/16 06:58:14;;;;;;;10.27;7.45;;;4.20;59.80;;;;;;4948387;28;20031;-58
2021/11/16 07:00:39;;;;;;;10.73;7.55;;;4.20;59.80;;;;;;4944334;28;20685;-58
2021/11/16 07:03:05;;;;;;;9.77;6.57;;;4.20;59.80;;;;;;4943854;28;20036;-58
2021/11/16 07:05:31;;;;;;;9.10;6.63;;;4.20;59.70;;;;;;4929764;28;20639;-58
2021/11/16 07:07:57;;;;;;;14.07;7.75;;;4.20;59.60;;;;;;4934656;28;20031;-58
2021/11/16 07:10:31;;;;;;;13.13;8.40;;;4.20;59.70;;;;;;4938888;28;20093;-57
2021/11/16 07:13:08;;;;;;;14.80;8.65;;;4.30;59.70;;;;;;4932081;28;20035;-58
2021/11/16 07:15:35;;;;;;;18.30;10.05;;;4.30;59.60;;;;;;4932586;28;20031;-58
2021/11/16 07:18:05;;;;;;;16.05;9.10;;;4.30;59.50;;;;;;4939244;28;20027;-59
2021/11/16 07:20:32;;;;;;;13.60;8.90;;;4.30;59.60;;;;;;4936452;28;20586;-57
2021/11/16 07:22:58;;;;;;;12.73;8.40;;;4.30;59.60;;;;;;4929201;28;21339;-57
2021/11/16 07:25:24;;;;;;;14.13;8.60;;;4.30;59.50;;;;;;4925973;28;20051;-59
2021/11/16 07:27:54;;;;;;;9.55;6.53;;;4.30;59.40;;;;;;4930372;28;20039;-58
2021/11/16 07:30:30;;;;;;;10.93;6.28;;;4.40;59.40;;;;;;4925550;28;20121;-58
2021/11/16 07:33:02;;;;;;;10.73;5.90;;;4.40;59.30;;;;;;4932650;29;20723;-61
2021/11/16 07:35:31;;;;;;;7.10;5.18;;;4.50;59.50;;;;;;4932148;28;20039;-61
2021/11/16 07:38:03;;;;;;;8.38;5.22;;;4.50;59.90;;;;;;4934257;28;20067;-59
2021/11/16 07:40:30;;;;;;;6.30;4.70;;;4.50;59.30;;;;;;4928462;28;20043;-61
2021/11/16 07:43:04;;;;;;;6.45;5.05;;;4.60;59.30;;;;;;4929990;29;20048;-59
2021/11/16 07:45:31;;;;;;;8.23;4.78;;;4.60;59.10;;;;;;4924022;28;20027;-57
2021/11/16 07:48:02;;;;;;;7.82;4.93;;;4.60;59.00;;;;;;4930132;28;20059;-57
2021/11/16 07:50:31;;;;;;;6.28;4.50;;;4.60;59.00;;;;;;4927035;28;20107;-58
2021/11/16 07:53:32;;;;;;;9.02;6.15;;;4.70;58.90;;;;;;4928166;28;20559;-58
2021/11/16 07:56:05;;;;;;;6.53;5.05;;;4.70;58.90;;;;;;4935260;28;20621;-60
2021/11/16 07:58:54;;;;;;;7.15;4.93;;;4.70;58.70;;;;;;4933366;28;20491;-58
2021/11/16 08:05:03;;;;;;;5.50;4.38;;;4.80;58.90;;;;;;4935557;28;20090;-58
2021/11/16 08:12:24;;;;;;;6.05;4.90;;;4.90;58.70;;;;;;4916849;28;21364;-63
2021/11/16 08:15:02;;;;;;;6.18;4.75;;;4.90;58.50;;;;;;4923220;28;20031;-58
2021/11/16 08:17:28;;;;;;;6.97;4.53;;;4.90;58.70;;;;;;4924430;28;20046;-57
2021/11/16 08:19:57;;;;;;;8.30;4.70;;;5.00;58.70;;;;;;4925697;28;20046;-59
2021/11/16 08:22:22;;;;;;;6.47;5.00;;;5.10;58.60;;;;;;4922814;29;20028;-58
2021/11/16 08:24:48;;;;;;;8.85;4.70;;;5.20;59.20;;;;;;4931688;28;20039;-57
2021/11/16 08:27:16;;;;;;;7.00;4.40;;;5.20;58.50;;;;;;4928506;29;20040;-60
2021/11/16 08:29:45;;;;;;;6.10;4.25;;;5.30;58.30;;;;;;4923051;28;20035;-59
2021/11/16 08:32:20;;;;;;;8.35;4.53;;;5.40;58.30;;;;;;4928106;28;20038;-58
2021/11/16 08:34:49;;;;;;;5.38;4.03;;;5.40;58.20;;;;;;4931203;28;20141;-59
2021/11/16 08:37:16;;;;;;;6.40;4.60;;;5.50;57.90;;;;;;4931255;28;21293;-58
2021/11/16 08:39:53;;;;;;;8.73;5.30;;;5.50;57.90;;;;;;4931620;28;20059;-59
2021/11/16 08:42:28;;;;;;;7.13;5.07;;;5.60;57.80;;;;;;4931863;28;20060;-60
2021/11/16 08:45:00;;;;;;;8.13;5.13;;;5.60;57.60;;;;;;4933610;28;20063;-58
2021/11/16 08:47:30;;;;;;;8.55;5.03;;;5.60;57.50;;;;;;4928339;28;20050;-59
2021/11/16 08:49:56;;;;;;;9.63;5.97;;;5.70;57.50;;;;;;4929380;29;20039;-58
2021/11/16 08:52:25;;;;;;;9.18;5.65;;;5.70;57.40;;;;;;4930757;28;20551;-59
2021/11/16 08:55:11;;;;;;;7.43;4.97;;;5.70;57.30;;;;;;4928210;28;20450;-57
2021/11/16 08:57:38;;;;;;;7.50;5.10;;;5.70;57.30;;;;;;4922663;28;20046;-59
2021/11/16 09:00:18;;;;;;;6.32;4.68;;;5.80;57.30;;;;;;4924207;28;20031;-59
2021/11/16 09:02:45;;;;;;;9.35;5.57;;;5.80;57.10;;;;;;4918473;28;20031;-59
2021/11/16 09:05:14;;;;;;;9.85;5.97;;;5.90;57.00;;;;;;4924595;28;20811;-59
2021/11/16 09:07:54;;;;;;;11.25;7.03;;;5.90;56.90;;;;;;4929547;28;20547;-58
2021/11/16 09:10:29;;;;;;;11.57;5.80;;;5.90;57.00;;;;;;4928920;28;20580;-60
2021/11/16 09:12:56;;;;;;;14.40;7.00;;;5.90;56.90;;;;;;4929019;28;20034;-60
2021/11/16 09:15:43;;;;;;;12.40;6.38;;;5.90;56.80;;;;;;4929217;28;20039;-58
2021/11/16 09:18:14;;;;;;;9.15;5.50;;;6.00;56.70;;;;;;4918650;28;20035;-59
2021/11/16 09:20:41;;;;;;;9.45;6.47;;;6.00;56.80;;;;;;4928051;28;20035;-57
2021/11/16 09:23:08;;;;;;;8.05;4.88;;;6.10;56.70;;;;;;4921674;29;20094;-59
2021/11/16 09:25:37;;;;;;;7.47;4.45;;;6.10;56.50;;;;;;4926147;28;22970;-58
2021/11/16 09:28:35;;;;;;;6.45;4.90;;;6.10;56.50;;;;;;4927649;28;20518;-59
2021/11/16 09:31:31;;;;;;;8.15;4.85;;;6.10;56.40;;;;;;4927741;28;20493;-59
2021/11/16 09:34:01;;;;;;;7.28;4.75;;;6.20;56.50;;;;;;4935170;28;20098;-59
2021/11/16 09:36:30;;;;;;;5.75;4.63;;;6.20;56.10;;;;;;4931710;28;21077;-57
2021/11/16 09:39:05;;;;;;;6.22;4.32;;;6.20;55.90;;;;;;4929405;28;20031;-57
2021/11/16 09:41:36;;;;;;;8.23;4.97;;;6.20;56.00;;;;;;4929037;28;20073;-58
2021/11/16 09:44:14;;;;;;;6.88;4.90;;;6.20;56.10;;;;;;4932089;28;20042;-59
2021/11/16 09:46:51;;;;;;;8.68;4.60;;;6.30;55.90;;;;;;4925372;29;20032;-59
2021/11/16 09:49:24;;;;;;;7.57;5.13;;;6.30;55.70;;;;;;4926972;28;20496;-59
2021/11/16 09:52:03;;;;;;;7.25;5.80;;;6.30;56.20;;;;;;4925842;28;20039;-58
2021/11/16 09:54:30;;;;;;;6.13;4.85;;;6.40;55.40;;;;;;4924023;29;20475;-59
2021/11/16 09:57:09;;;;;;;6.45;4.45;;;6.40;55.30;;;;;;4925786;29;20045;-59
2021/11/16 09:59:37;;;;;;;6.07;4.43;;;6.40;54.80;;;;;;4917593;29;20054;-60
2021/11/16 10:02:04;;;;;;;4.63;4.18;;;6.30;54.70;;;;;;4921417;29;20028;-58
2021/11/16 10:04:34;;;;;;;6.70;4.85;;;6.20;54.80;;;;;;4926818;28;20090;-59
2021/11/16 10:07:01;;;;;;;7.13;4.97;;;6.00;54.90;;;;;;4922653;28;20042;-58
2021/11/16 10:09:26;;;;;;;7.03;4.80;;;5.90;55.20;;;;;;4926701;28;20040;-59
2021/11/16 10:11:53;;;;;;;5.93;4.50;;;6.00;55.50;;;;;;4924441;29;20082;-58
2021/11/16 10:14:22;;;;;;;6.03;4.55;;;6.00;55.50;;;;;;4920084;28;20035;-58
2021/11/16 10:16:50;;;;;;;6.63;5.13;;;6.00;55.30;;;;;;4922288;29;20046;-59
2021/11/16 10:19:15;;;;;;;11.60;5.85;;;6.00;55.20;;;;;;4924258;29;20043;-57
2021/11/16 10:21:42;;;;;;;9.18;6.07;;;6.00;55.30;;;;;;4931949;28;20019;-56
2021/11/16 10:24:31;;;;;;;10.15;6.85;;;6.10;55.50;;;;;;4923950;28;20035;-58
2021/11/16 10:27:02;;;;;;;7.00;4.70;;;6.20;55.40;;;;;;4921727;28;20054;-59
2021/11/16 10:29:29;;;;;;;5.45;4.93;;;6.30;55.10;;;;;;4924891;28;20583;-58
2021/11/16 10:31:55;;;;;;;4.53;3.85;;;6.30;55.00;;;;;;4924189;28;20039;-58
2021/11/16 10:34:36;;;;;;;6.40;4.47;;;6.30;54.80;;;;;;4928212;29;20047;-59
2021/11/16 10:37:04;;;;;;;5.32;4.20;;;6.30;54.40;;;;;;4916847;28;20126;-59
2021/11/16 10:39:30;;;;;;;6.03;4.60;;;6.20;54.70;;;;;;4924365;28;20523;-58
2021/11/16 10:41:56;;;;;;;5.43;4.65;;;6.10;54.80;;;;;;4927876;28;20052;-60
2021/11/16 10:44:23;;;;;;;5.95;4.55;;;6.10;55.00;;;;;;4924857;28;20476;-59
2021/11/16 10:46:49;;;;;;;5.95;4.85;;;6.20;55.10;;;;;;4922437;29;20403;-59
2021/11/16 10:49:17;;;;;;;5.88;5.03;;;6.20;55.10;;;;;;4922777;28;20040;-60
2021/11/16 10:51:45;;;;;;;9.90;6.68;;;6.30;55.20;;;;;;4920152;28;20039;-59
2021/11/16 10:54:12;;;;;;;9.50;6.97;;;6.40;55.10;;;;;;4924342;29;20028;-59
2021/11/16 10:56:40;;;;;;;13.13;7.30;;;6.40;55.00;;;;;;4936285;28;20035;-59
2021/11/16 10:59:08;;;;;;;9.55;6.38;;;6.50;54.80;;;;;;4933753;28;20027;-60
2021/11/16 11:01:45;;;;;;;10.50;7.28;;;6.50;54.70;;;;;;4928322;28;20127;-59
2021/11/16 11:04:15;;;;;;;11.73;8.00;;;6.60;54.60;;;;;;4920599;29;20537;-58
2021/11/16 11:06:43;;;;;;;15.48;8.68;;;6.60;54.50;;;;;;4924569;29;20103;-60
2021/11/16 11:09:13;;;;;;;15.80;9.55;;;6.70;54.40;;;;;;4924751;29;20039;-60
2021/11/16 11:11:42;;;;;;;15.75;10.10;;;6.80;54.30;;;;;;4922291;29;20055;-59
2021/11/16 11:14:18;;;;;;;16.42;8.73;;;6.80;54.20;;;;;;4928392;28;20126;-59
2021/11/16 11:17:07;;;;;;;10.98;6.60;;;6.80;54.00;;;;;;4931326;28;20031;-59
2021/11/16 11:19:36;;;;;;;10.07;6.93;;;6.90;54.00;;;;;;4931421;29;20043;-59
2021/11/16 11:25:00;;;;;;;24.25;11.88;;;6.90;53.90;;;;;;4935936;29;20043;-59
2021/11/16 11:27:36;;;;;;;23.77;11.75;;;6.90;53.80;;;;;;4938230;29;20059;-59
2021/11/16 11:30:08;;;;;;;15.65;9.60;;;6.90;53.60;;;;;;4939107;28;20090;-58
2021/11/16 11:32:41;;;;;;;16.05;8.93;;;6.90;53.70;;;;;;4938286;28;20067;-59
2021/11/16 11:35:12;;;;;;;22.23;11.63;;;6.90;53.60;;;;;;4939200;28;20039;-59
2021/11/16 11:38:11;;;;;;;17.65;10.77;;;6.90;53.60;;;;;;4937400;28;20089;-59
2021/11/16 11:40:40;;;;;;;24.38;11.90;;;6.90;53.50;;;;;;4940397;28;20479;-59
2021/11/16 11:43:15;;;;;;;22.15;10.52;;;7.00;53.60;;;;;;4933061;28;20034;-59
2021/11/16 11:45:45;;;;;;;14.27;8.55;;;7.00;53.60;;;;;;4933446;28;20456;-59
2021/11/16 11:48:18;;;;;;;10.45;7.70;;;7.00;53.50;;;;;;4936982;28;20089;-60
2021/11/16 11:50:44;;;;;;;10.80;7.43;;;7.00;53.40;;;;;;4935832;28;20035;-60
2021/11/16 11:53:13;;;;;;;15.90;8.18;;;7.00;53.60;;;;;;4929258;29;20471;-59
2021/11/16 11:55:44;;;;;;;11.05;8.38;;;7.00;53.50;;;;;;4930576;29;20055;-60
2021/11/16 11:58:11;;;;;;;17.30;7.97;;;7.00;53.40;;;;;;4929433;29;20031;-61
2021/11/16 12:00:38;;;;;;;9.98;7.05;;;6.90;53.50;;;;;;4932292;29;20054;-57
2021/11/16 12:03:07;;;;;;;12.95;7.03;;;6.90;53.40;;;;;;4932485;28;20038;-61
2021/11/16 12:05:35;;;;;;;9.90;6.75;;;6.90;53.50;;;;;;4935609;28;20054;-60
2021/11/16 12:08:01;;;;;;;14.27;8.02;;;6.90;53.80;;;;;;4923440;28;20062;-61
2021/11/16 12:10:27;;;;;;;12.10;8.50;;;6.90;53.60;;;;;;4932327;28;20039;-59
2021/11/16 12:12:55;;;;;;;15.10;9.10;;;6.90;53.70;;;;;;4926279;28;20082;-57
2021/11/16 12:15:50;;;;;;;24.52;12.60;;;6.90;54.00;;;;;;4937204;28;22256;-58
2021/11/16 12:18:17;;;;;;;23.95;12.93;;;6.90;53.90;;;;;;4921466;28;20481;-59
2021/11/16 12:20:53;;;;;;;25.88;13.20;;;6.90;53.60;;;;;;4928913;28;20043;-61
2021/11/16 12:23:43;;;;;;;20.63;11.10;;;7.00;53.80;;;;;;4926196;28;20124;-62
2021/11/16 12:26:10;;;;;;;16.80;9.40;;;7.00;53.40;;;;;;4933931;28;20063;-62
2021/11/16 12:28:38;;;;;;;14.85;10.18;;;7.00;53.40;;;;;;4933407;29;20035;-58
2021/11/16 12:31:04;;;;;;;13.63;8.70;;;7.00;53.30;;;;;;4929606;28;20023;-61
2021/11/16 12:33:44;;;;;;;13.48;8.40;;;7.00;53.30;;;;;;4935339;28;20039;-59
2021/11/16 12:36:16;;;;;;;11.35;8.25;;;7.10;53.30;;;;;;4929841;28;20119;-60
2021/11/16 12:38:47;;;;;;;14.18;8.70;;;7.10;53.40;;;;;;4929822;29;20035;-58
2021/11/16 12:41:30;;;;;;;12.30;8.15;;;7.10;53.30;;;;;;4935437;28;20049;-59
2021/11/16 12:43:58;;;;;;;16.52;8.90;;;7.10;53.50;;;;;;4923567;28;20151;-59
2021/11/16 12:46:28;;;;;;;15.57;9.63;;;7.10;53.40;;;;;;4933511;29;20039;-59
2021/11/16 12:48:56;;;;;;;14.70;9.05;;;7.10;53.20;;;;;;4930460;28;20453;-64
2021/11/16 12:51:24;;;;;;;15.80;10.32;;;7.00;53.20;;;;;;4929170;28;20094;-63
2021/11/16 12:54:01;;;;;;;15.02;9.68;;;7.00;53.20;;;;;;4929455;29;24682;-62
2021/11/16 12:56:40;;;;;;;10.85;7.53;;;7.00;53.30;;;;;;4922545;28;20035;-62
2021/11/16 12:59:06;;;;;;;16.88;8.23;;;7.00;53.20;;;;;;4928716;28;20023;-61
2021/11/16 13:01:46;;;;;;;13.02;8.35;;;6.90;53.20;;;;;;4932837;28;20102;-60
2021/11/16 13:04:13;;;;;;;19.50;11.02;;;6.90;53.30;;;;;;4930747;28;20762;-60
2021/11/16 13:06:43;;;;;;;18.75;11.00;;;6.90;53.40;;;;;;4924283;29;20027;-61
2021/11/16 13:09:30;;;;;;;21.40;12.38;;;6.90;53.30;;;;;;4932327;28;20035;-60
2021/11/16 13:11:56;;;;;;;21.95;11.50;;;7.00;53.20;;;;;;4925069;29;21782;-61
2021/11/16 13:14:36;;;;;;;19.27;11.48;;;6.90;53.20;;;;;;4925337;28;20039;-62
2021/11/16 13:17:41;;;;;;;19.50;11.07;;;7.00;53.40;;;;;;4925371;28;20050;-63
2021/11/16 13:20:09;;;;;;;10.73;6.93;;;7.00;53.50;;;;;;4930479;29;20378;-62